Time;durP1;ratioP1;P1;durP2;ratioP2;P2;SDS_P1;SDS_P2;PMS_P1;PMS_P2;Temp;Humidity;BMP_temperature;BMP_pressure;BME280_temperature;BME280_humidity;BME280_pressure;Samples;Min_cycle;Max_cycle;Signal;HPM_P1;HPM_P2
2021/03/06 00:00:35;;;;;;;10.70;8.80;;;-1.10;99.90;;;;;;5030192;28;20262;-63
2021/03/06 00:03:02;;;;;;;9.97;8.10;;;-1.10;99.90;;;;;;5017310;28;20208;-64
2021/03/06 00:05:29;;;;;;;10.40;8.10;;;-1.10;99.90;;;;;;5027671;28;20204;-63
2021/03/06 00:07:56;;;;;;;14.57;8.83;;;-1.00;99.90;;;;;;5027166;28;20537;-65
2021/03/06 00:10:23;;;;;;;15.20;8.50;;;-1.00;99.90;;;;;;5029057;28;20664;-62
2021/03/06 00:12:50;;;;;;;10.00;8.77;;;-1.00;99.90;;;;;;5016225;28;20236;-65
2021/03/06 00:15:19;;;;;;;11.43;8.83;;;-1.00;99.90;;;;;;5028412;28;20197;-66
2021/03/06 00:17:46;;;;;;;10.80;8.23;;;-1.00;99.90;;;;;;5016029;28;20585;-65
2021/03/06 00:20:12;;;;;;;12.43;7.90;;;-1.00;99.90;;;;;;5030584;28;20200;-65
2021/03/06 00:22:41;;;;;;;13.53;7.53;;;-1.10;99.90;;;;;;5031208;28;20214;-64
2021/03/06 00:25:10;;;;;;;9.90;7.93;;;-1.00;99.90;;;;;;5012191;28;20211;-66
2021/03/06 00:27:36;;;;;;;11.27;7.90;;;-1.00;99.90;;;;;;5012095;28;20201;-63
2021/03/06 00:30:06;;;;;;;13.17;8.53;;;-1.00;99.90;;;;;;5013294;28;20208;-64
2021/03/06 00:32:32;;;;;;;11.93;8.03;;;-1.00;99.90;;;;;;5017346;28;20231;-64
2021/03/06 00:34:59;;;;;;;10.13;7.43;;;-0.90;99.90;;;;;;5017549;28;20205;-63
2021/03/06 00:37:25;;;;;;;8.40;7.50;;;-0.90;99.90;;;;;;5015597;28;20204;-66
2021/03/06 00:39:52;;;;;;;12.50;7.90;;;-1.00;99.90;;;;;;5021452;28;20252;-64
2021/03/06 00:42:19;;;;;;;13.60;8.20;;;-0.90;99.90;;;;;;5029299;28;21477;-66
2021/03/06 00:44:45;;;;;;;11.43;8.40;;;-0.90;99.90;;;;;;5019391;28;20197;-62
2021/03/06 00:47:12;;;;;;;10.33;8.20;;;-0.80;99.90;;;;;;5012578;28;20197;-65
2021/03/06 00:49:38;;;;;;;14.63;9.33;;;-0.80;99.90;;;;;;5025896;28;20204;-65
2021/03/06 00:52:05;;;;;;;12.27;8.80;;;-0.70;99.90;;;;;;5031725;28;20235;-64
2021/03/06 00:54:32;;;;;;;13.10;8.73;;;-0.60;99.90;;;;;;5021154;28;20204;-67
2021/03/06 00:56:59;;;;;;;13.83;9.17;;;-0.60;99.90;;;;;;5013600;28;20201;-62
2021/03/06 00:59:26;;;;;;;10.93;8.20;;;-0.60;99.90;;;;;;5031965;28;20197;-63
2021/03/06 01:01:52;;;;;;;17.67;9.80;;;-0.60;99.90;;;;;;5024629;28;20211;-64
2021/03/06 01:04:19;;;;;;;11.10;8.50;;;-0.70;99.90;;;;;;5023289;28;20255;-64
2021/03/06 01:06:45;;;;;;;13.57;8.80;;;-0.60;99.90;;;;;;5016341;28;20200;-63
2021/03/06 01:09:12;;;;;;;12.70;8.37;;;-0.50;99.90;;;;;;5030299;28;20654;-63
2021/03/06 01:11:38;;;;;;;8.80;7.90;;;-0.60;99.90;;;;;;5028558;28;20579;-64
2021/03/06 01:14:06;;;;;;;13.53;8.40;;;-0.60;99.90;;;;;;5024703;28;20707;-62
2021/03/06 01:16:32;;;;;;;16.30;9.27;;;-0.60;99.90;;;;;;5013048;28;20205;-64
2021/03/06 01:18:59;;;;;;;11.47;9.10;;;-0.60;99.90;;;;;;5021592;28;20192;-65
2021/03/06 01:21:25;;;;;;;12.90;9.83;;;-0.60;99.90;;;;;;5028721;28;20193;-64
2021/03/06 01:23:51;;;;;;;11.57;9.70;;;-0.70;99.90;;;;;;5026084;28;20573;-65
2021/03/06 01:26:18;;;;;;;14.07;10.60;;;-0.70;99.90;;;;;;5033622;28;20200;-64
2021/03/06 01:28:44;;;;;;;18.00;10.53;;;-0.70;99.90;;;;;;5034958;28;20208;-64
2021/03/06 01:31:12;;;;;;;13.43;9.20;;;-0.70;99.90;;;;;;5033832;28;20246;-63
2021/03/06 01:33:38;;;;;;;16.50;10.10;;;-0.70;99.90;;;;;;5032729;28;20192;-64
2021/03/06 01:36:05;;;;;;;14.33;10.97;;;-0.70;99.90;;;;;;5030074;28;20204;-62
2021/03/06 01:38:32;;;;;;;15.07;10.03;;;-0.80;99.90;;;;;;5019267;28;20197;-65
2021/03/06 01:40:58;;;;;;;12.90;10.13;;;-0.80;99.90;;;;;;5029416;28;20197;-63
2021/03/06 01:43:25;;;;;;;12.60;10.03;;;-0.90;99.90;;;;;;5018577;28;20224;-63
2021/03/06 01:45:51;;;;;;;15.63;10.03;;;-0.90;99.90;;;;;;5027386;28;20201;-63
2021/03/06 01:48:19;;;;;;;12.33;9.77;;;-1.00;99.90;;;;;;5014661;28;20201;-63
2021/03/06 01:50:46;;;;;;;11.43;9.27;;;-1.10;99.90;;;;;;5026921;28;20200;-63
2021/03/06 01:53:14;;;;;;;11.10;9.07;;;-1.20;99.90;;;;;;5032770;28;20200;-64
2021/03/06 01:55:44;;;;;;;12.50;9.70;;;-1.30;99.90;;;;;;5031830;28;20250;-65
2021/03/06 01:58:11;;;;;;;11.50;9.00;;;-1.30;99.90;;;;;;5033374;28;20197;-68
2021/03/06 02:00:38;;;;;;;10.63;9.10;;;-1.40;99.90;;;;;;5026809;28;20531;-66
2021/03/06 02:03:05;;;;;;;10.10;9.13;;;-1.50;99.90;;;;;;5032951;28;20200;-68
2021/03/06 02:05:32;;;;;;;12.43;9.10;;;-1.50;99.90;;;;;;5030315;28;20204;-63
2021/03/06 02:07:59;;;;;;;10.73;8.77;;;-1.50;99.90;;;;;;5031855;28;20207;-67
2021/03/06 02:10:29;;;;;;;13.90;9.40;;;-1.60;99.90;;;;;;5029378;28;20204;-69
2021/03/06 02:13:03;;;;;;;12.17;9.40;;;-1.50;99.90;;;;;;5033425;28;20267;-67
2021/03/06 02:15:42;;;;;;;12.73;9.80;;;-1.50;99.90;;;;;;5031506;28;20551;-64
2021/03/06 02:18:15;;;;;;;11.73;9.83;;;-1.60;99.90;;;;;;5031399;28;20189;-63
2021/03/06 02:20:52;;;;;;;11.77;9.87;;;-1.60;99.90;;;;;;5032167;28;20192;-63
2021/03/06 02:23:51;;;;;;;13.47;10.47;;;-1.70;99.90;;;;;;5031082;28;20226;-64
2021/03/06 02:26:37;;;;;;;12.23;9.73;;;-1.80;99.90;;;;;;5015125;28;20204;-65
2021/03/06 02:29:22;;;;;;;13.37;10.20;;;-1.80;99.90;;;;;;5020089;28;20237;-68
2021/03/06 02:31:51;;;;;;;12.43;10.13;;;-1.90;99.90;;;;;;5027208;28;20223;-64
2021/03/06 02:34:22;;;;;;;12.40;10.23;;;-1.90;99.90;;;;;;5018912;28;20196;-68
2021/03/06 02:36:53;;;;;;;17.30;10.23;;;-1.90;99.90;;;;;;5031031;28;20242;-65
2021/03/06 02:39:22;;;;;;;10.10;8.57;;;-1.90;99.90;;;;;;5026118;28;20783;-65
2021/03/06 02:41:50;;;;;;;9.83;8.83;;;-2.00;99.90;;;;;;5031674;28;20200;-64
2021/03/06 02:44:18;;;;;;;11.20;9.50;;;-1.90;99.90;;;;;;5032280;28;20239;-65
2021/03/06 02:46:47;;;;;;;14.13;9.67;;;-1.90;99.90;;;;;;5015063;28;20535;-64
2021/03/06 02:49:13;;;;;;;12.63;9.50;;;-1.90;99.90;;;;;;5028743;28;20291;-62
2021/03/06 02:51:42;;;;;;;11.97;9.07;;;-1.90;99.90;;;;;;5029589;28;20251;-63
2021/03/06 02:54:10;;;;;;;17.57;9.50;;;-2.00;99.90;;;;;;5022208;28;20200;-63
2021/03/06 02:56:37;;;;;;;12.57;7.97;;;-2.00;99.90;;;;;;5017526;28;20192;-62
2021/03/06 02:59:20;;;;;;;14.50;8.47;;;-2.00;99.90;;;;;;5033342;28;20616;-62
2021/03/06 03:01:55;;;;;;;12.00;8.13;;;-1.90;99.90;;;;;;5029229;28;20291;-63
2021/03/06 03:04:28;;;;;;;12.83;8.30;;;-1.90;99.90;;;;;;5030666;28;20274;-64
2021/03/06 03:07:01;;;;;;;12.63;8.50;;;-2.00;99.90;;;;;;5013365;28;20200;-64
2021/03/06 03:09:32;;;;;;;9.43;7.90;;;-2.00;99.90;;;;;;5012372;28;20606;-63
2021/03/06 03:12:02;;;;;;;12.77;8.90;;;-1.90;99.90;;;;;;5031627;28;20243;-63
2021/03/06 03:14:33;;;;;;;17.27;8.70;;;-1.90;99.90;;;;;;5022521;28;20204;-62
2021/03/06 03:17:06;;;;;;;13.30;9.17;;;-1.90;99.90;;;;;;5012926;28;20204;-63
2021/03/06 03:19:35;;;;;;;12.50;8.87;;;-1.80;99.90;;;;;;5013034;28;20189;-63
2021/03/06 03:22:04;;;;;;;13.20;8.53;;;-1.80;99.90;;;;;;5028013;28;20204;-64
2021/03/06 03:24:36;;;;;;;18.63;8.73;;;-1.80;99.90;;;;;;5031268;28;20208;-63
2021/03/06 03:27:06;;;;;;;12.70;8.60;;;-1.80;99.90;;;;;;5022408;28;20197;-65
2021/03/06 03:29:33;;;;;;;11.53;9.70;;;-1.80;99.90;;;;;;5026083;28;20262;-66
2021/03/06 03:32:00;;;;;;;14.37;9.53;;;-1.90;99.90;;;;;;5025113;28;20227;-64
2021/03/06 03:34:29;;;;;;;14.70;9.83;;;-1.90;99.90;;;;;;5024225;28;20201;-63
2021/03/06 03:36:56;;;;;;;16.63;9.27;;;-2.00;99.90;;;;;;5030596;28;20704;-62
2021/03/06 03:39:22;;;;;;;14.60;9.80;;;-2.00;99.90;;;;;;5031682;28;20243;-65
2021/03/06 03:41:50;;;;;;;12.70;8.87;;;-2.00;99.90;;;;;;5017434;28;20648;-66
2021/03/06 03:44:17;;;;;;;12.30;8.83;;;-2.10;99.90;;;;;;5022466;28;20232;-65
2021/03/06 03:46:43;;;;;;;15.13;9.87;;;-2.10;99.90;;;;;;5032322;28;20196;-62
2021/03/06 03:49:16;;;;;;;15.10;9.63;;;-2.20;99.90;;;;;;5029690;28;20214;-62
2021/03/06 03:51:44;;;;;;;13.30;9.83;;;-2.30;99.90;;;;;;5031238;28;20263;-61
2021/03/06 03:54:10;;;;;;;12.67;9.80;;;-2.30;99.90;;;;;;5029179;28;20680;-61
2021/03/06 03:56:37;;;;;;;16.50;10.17;;;-2.30;99.90;;;;;;5021749;28;20196;-64
2021/03/06 03:59:03;;;;;;;16.23;9.77;;;-2.40;99.90;;;;;;5015784;28;20208;-61
2021/03/06 04:01:39;;;;;;;12.03;9.60;;;-2.40;99.90;;;;;;5028400;28;20208;-63
2021/03/06 04:04:07;;;;;;;13.73;9.90;;;-2.40;99.90;;;;;;5020884;28;20192;-66
2021/03/06 04:06:34;;;;;;;15.33;10.23;;;-2.50;99.90;;;;;;5020978;28;20208;-63
2021/03/06 04:09:01;;;;;;;15.67;10.83;;;-2.50;99.90;;;;;;5030408;28;20204;-65
2021/03/06 04:11:28;;;;;;;13.10;9.90;;;-2.50;99.90;;;;;;5022085;28;20766;-63
2021/03/06 04:13:54;;;;;;;17.83;11.97;;;-2.50;99.90;;;;;;5022593;28;20209;-64
2021/03/06 04:16:20;;;;;;;14.73;11.30;;;-2.50;99.90;;;;;;5020726;28;20259;-62
2021/03/06 04:18:47;;;;;;;19.17;11.90;;;-2.50;99.90;;;;;;5020460;28;20204;-62
2021/03/06 04:21:13;;;;;;;21.33;13.10;;;-2.50;99.90;;;;;;5028397;28;20218;-66
2021/03/06 04:23:40;;;;;;;16.63;11.47;;;-2.50;99.90;;;;;;5031148;28;20568;-63
2021/03/06 04:26:07;;;;;;;15.97;11.63;;;-2.40;99.90;;;;;;5024800;28;20209;-63
2021/03/06 04:28:33;;;;;;;22.83;11.60;;;-2.40;99.90;;;;;;5018151;28;20208;-63
2021/03/06 04:31:00;;;;;;;16.53;11.13;;;-2.40;99.90;;;;;;5010506;28;20233;-64
2021/03/06 04:33:26;;;;;;;17.73;12.87;;;-2.50;99.90;;;;;;5028073;28;20196;-65
2021/03/06 04:35:53;;;;;;;17.23;13.03;;;-2.50;99.90;;;;;;5022764;28;20200;-65
2021/03/06 04:38:19;;;;;;;17.33;13.57;;;-2.40;99.90;;;;;;5015721;28;20240;-64
2021/03/06 04:40:46;;;;;;;17.80;12.90;;;-2.40;99.90;;;;;;5015499;28;20200;-65
2021/03/06 04:43:13;;;;;;;22.57;13.83;;;-2.40;99.90;;;;;;5016879;28;20232;-65
2021/03/06 04:45:39;;;;;;;19.57;13.50;;;-2.30;99.90;;;;;;5015651;28;20209;-66
2021/03/06 04:48:07;;;;;;;19.23;14.50;;;-2.30;99.90;;;;;;5014827;28;20204;-64
2021/03/06 04:50:33;;;;;;;19.70;13.47;;;-2.30;99.90;;;;;;5014545;28;20212;-64
2021/03/06 04:53:00;;;;;;;23.23;14.33;;;-2.30;99.90;;;;;;5023010;28;20240;-65
2021/03/06 04:55:26;;;;;;;22.50;14.63;;;-2.30;99.90;;;;;;5018530;28;20654;-62
2021/03/06 04:57:52;;;;;;;23.60;15.50;;;-2.30;99.90;;;;;;5016044;28;20196;-64
2021/03/06 05:00:20;;;;;;;21.07;14.90;;;-2.30;99.90;;;;;;5019763;28;20197;-65
2021/03/06 05:02:47;;;;;;;15.93;13.37;;;-2.30;99.90;;;;;;5019689;28;20196;-61
2021/03/06 05:05:14;;;;;;;20.93;16.27;;;-2.30;99.90;;;;;;5026852;28;20207;-64
2021/03/06 05:07:40;;;;;;;26.20;16.17;;;-2.40;99.90;;;;;;5028993;28;20201;-62
2021/03/06 05:10:08;;;;;;;26.33;17.07;;;-2.40;99.90;;;;;;5028283;28;20196;-62
2021/03/06 05:12:34;;;;;;;22.10;16.60;;;-2.40;99.90;;;;;;5023728;28;20954;-64
2021/03/06 05:15:01;;;;;;;24.63;16.43;;;-2.50;99.90;;;;;;5033864;28;20193;-63
2021/03/06 05:17:28;;;;;;;25.33;18.23;;;-2.50;99.90;;;;;;5013770;28;20251;-63
2021/03/06 05:19:55;;;;;;;25.53;17.23;;;-2.50;99.90;;;;;;5028629;28;20200;-63
2021/03/06 05:22:22;;;;;;;23.60;18.00;;;-2.40;99.90;;;;;;5026703;28;20200;-61
2021/03/06 05:24:49;;;;;;;27.33;18.67;;;-2.40;99.90;;;;;;5031716;28;20197;-63
2021/03/06 05:27:15;;;;;;;24.43;17.27;;;-2.40;99.90;;;;;;5021143;28;20211;-65
2021/03/06 05:29:42;;;;;;;23.00;17.63;;;-2.40;99.90;;;;;;5026470;28;20200;-66
2021/03/06 05:32:08;;;;;;;24.87;17.63;;;-2.40;99.90;;;;;;5032566;28;20223;-63
2021/03/06 05:34:36;;;;;;;29.37;18.03;;;-2.40;99.90;;;;;;5031356;28;20258;-62
2021/03/06 05:37:03;;;;;;;23.80;17.77;;;-2.50;99.90;;;;;;5030040;28;20341;-62
2021/03/06 05:39:30;;;;;;;25.20;17.57;;;-2.50;99.90;;;;;;5033729;28;20196;-63
2021/03/06 05:41:56;;;;;;;24.00;17.97;;;-2.50;99.90;;;;;;5022153;28;20674;-63
2021/03/06 05:44:23;;;;;;;27.20;18.60;;;-2.50;99.90;;;;;;5034270;28;20234;-65
2021/03/06 05:46:52;;;;;;;24.67;18.80;;;-2.50;99.90;;;;;;5031264;28;20233;-62
2021/03/06 05:49:18;;;;;;;26.70;18.87;;;-2.50;99.90;;;;;;5033429;28;20245;-62
2021/03/06 05:51:47;;;;;;;31.63;23.40;;;-2.40;99.90;;;;;;5028426;28;20228;-63
2021/03/06 05:54:15;;;;;;;30.50;23.17;;;-2.30;99.90;;;;;;5033556;28;20213;-63
2021/03/06 05:56:43;;;;;;;28.57;21.30;;;-2.30;99.90;;;;;;5028912;28;20201;-64
2021/03/06 05:59:11;;;;;;;32.83;22.07;;;-2.40;99.90;;;;;;5027979;28;20200;-63
2021/03/06 06:01:39;;;;;;;24.57;20.03;;;-2.40;99.90;;;;;;5025885;28;20246;-63
2021/03/06 06:04:07;;;;;;;30.00;19.70;;;-2.40;99.90;;;;;;5028423;28;20192;-63
2021/03/06 06:06:35;;;;;;;26.10;20.03;;;-2.40;99.90;;;;;;5032032;28;20654;-63
2021/03/06 06:09:04;;;;;;;29.93;19.03;;;-2.30;99.90;;;;;;5025670;28;20246;-66
2021/03/06 06:11:32;;;;;;;27.13;19.20;;;-2.30;99.90;;;;;;5018467;28;20224;-65
2021/03/06 06:13:59;;;;;;;28.83;19.60;;;-2.30;99.90;;;;;;5030171;28;20196;-62
2021/03/06 06:16:29;;;;;;;28.53;19.40;;;-2.20;99.90;;;;;;5030233;28;20273;-64
2021/03/06 06:18:56;;;;;;;32.13;21.17;;;-2.20;99.90;;;;;;5026195;28;20235;-64
2021/03/06 06:21:39;;;;;;;28.87;19.00;;;-2.20;99.90;;;;;;5016328;28;20545;-65
2021/03/06 06:24:08;;;;;;;24.20;18.70;;;-2.30;99.90;;;;;;5019619;28;20204;-62
2021/03/06 06:26:35;;;;;;;23.87;18.27;;;-2.40;99.90;;;;;;5016030;28;20304;-64
2021/03/06 06:29:02;;;;;;;27.83;17.37;;;-2.40;99.90;;;;;;5028988;28;20254;-64
2021/03/06 06:31:28;;;;;;;25.70;18.43;;;-2.40;99.90;;;;;;5033859;28;20216;-61
2021/03/06 06:33:56;;;;;;;27.23;18.90;;;-2.30;99.90;;;;;;5029099;28;20208;-64
2021/03/06 06:36:38;;;;;;;28.40;18.73;;;-2.30;99.90;;;;;;5027309;28;20538;-65
2021/03/06 06:39:07;;;;;;;23.13;18.00;;;-2.20;99.90;;;;;;5020256;28;20261;-62
2021/03/06 06:41:53;;;;;;;26.93;17.60;;;-2.20;99.90;;;;;;5032228;28;20211;-62
2021/03/06 06:44:20;;;;;;;27.80;17.73;;;-2.20;99.90;;;;;;5019416;28;20724;-62
2021/03/06 06:46:46;;;;;;;26.17;18.57;;;-2.10;99.90;;;;;;5022007;28;20358;-65
2021/03/06 06:49:13;;;;;;;24.87;18.40;;;-2.10;99.90;;;;;;5013916;28;20212;-67
2021/03/06 06:52:00;;;;;;;25.80;18.23;;;-2.10;99.90;;;;;;5017393;28;20271;-66
2021/03/06 06:54:28;;;;;;;23.43;17.47;;;-2.00;99.90;;;;;;5022312;28;20261;-63
2021/03/06 06:57:11;;;;;;;31.07;19.77;;;-2.00;99.90;;;;;;5028530;28;20204;-62
2021/03/06 06:59:39;;;;;;;25.67;19.07;;;-1.90;99.90;;;;;;5030034;28;20197;-64
2021/03/06 07:02:07;;;;;;;32.60;19.07;;;-1.70;99.90;;;;;;5021228;28;20196;-64
2021/03/06 07:04:48;;;;;;;24.40;18.37;;;-1.50;99.90;;;;;;5029854;28;20200;-69
2021/03/06 07:07:16;;;;;;;33.80;19.53;;;-1.30;99.90;;;;;;5013601;28;20251;-65
2021/03/06 07:10:07;;;;;;;30.63;18.73;;;-1.20;99.90;;;;;;5023152;28;20200;-66
2021/03/06 07:12:36;;;;;;;32.67;20.40;;;-1.10;99.90;;;;;;5008163;28;20268;-63
2021/03/06 07:15:11;;;;;;;31.70;18.80;;;-0.90;99.90;;;;;;5029359;28;20310;-62
2021/03/06 07:17:40;;;;;;;27.33;18.67;;;-0.60;99.90;;;;;;5022317;28;20204;-64
2021/03/06 07:20:10;;;;;;;29.80;19.57;;;-0.30;99.90;;;;;;5015033;28;20236;-66
2021/03/06 07:22:37;;;;;;;24.20;18.93;;;-0.10;99.90;;;;;;5021758;28;20201;-65
2021/03/06 07:25:06;;;;;;;27.80;21.10;;;0.20;99.90;;;;;;5013819;28;20665;-65
2021/03/06 07:27:32;;;;;;;31.47;21.53;;;0.40;99.90;;;;;;5016921;28;20230;-66
2021/03/06 07:29:59;;;;;;;32.07;20.63;;;0.50;99.90;;;;;;5012438;28;20193;-65
2021/03/06 07:32:31;;;;;;;30.40;20.10;;;0.60;99.90;;;;;;5017617;28;20220;-62
2021/03/06 07:35:03;;;;;;;27.27;18.40;;;0.60;99.90;;;;;;5017343;28;20322;-65
2021/03/06 07:37:31;;;;;;;27.33;17.70;;;0.70;99.90;;;;;;5014367;28;20192;-66
2021/03/06 07:39:59;;;;;;;26.33;17.10;;;0.90;99.90;;;;;;5011820;28;20208;-74
2021/03/06 07:42:37;;;;;;;25.13;15.93;;;1.10;99.90;;;;;;5013918;28;20262;-68
2021/03/06 07:45:05;;;;;;;22.67;16.03;;;1.30;99.90;;;;;;5028268;28;20224;-65
2021/03/06 07:47:36;;;;;;;23.70;15.90;;;1.90;99.90;;;;;;5029165;28;20220;-62
2021/03/06 07:50:06;;;;;;;20.97;16.20;;;2.40;99.90;;;;;;5014941;28;20204;-65
2021/03/06 07:52:35;;;;;;;20.93;14.10;;;2.90;99.90;;;;;;5011579;28;20231;-64
2021/03/06 07:55:03;;;;;;;22.13;15.40;;;3.30;99.90;;;;;;5017695;28;20193;-66
2021/03/06 07:57:31;;;;;;;16.30;12.23;;;3.70;99.90;;;;;;5018729;28;20201;-64
2021/03/06 07:59:57;;;;;;;16.63;10.17;;;3.90;99.90;;;;;;5013309;28;21200;-69
2021/03/06 08:02:45;;;;;;;20.43;9.63;;;3.70;99.90;;;;;;5016256;28;20283;-64
2021/03/06 08:05:41;;;;;;;11.07;7.70;;;3.50;99.90;;;;;;5021938;28;20212;-66
2021/03/06 08:08:07;;;;;;;12.03;7.13;;;3.60;99.90;;;;;;5018786;28;20204;-65
2021/03/06 08:11:04;;;;;;;9.77;7.10;;;3.80;99.90;;;;;;5019234;28;20807;-68
2021/03/06 08:13:35;;;;;;;11.80;7.10;;;4.10;99.90;;;;;;5020318;28;20242;-68
2021/03/06 08:16:35;;;;;;;6.57;5.73;;;4.40;99.90;;;;;;5020818;28;20711;-66
2021/03/06 08:19:21;;;;;;;7.90;4.80;;;4.70;99.90;;;;;;5019598;28;20208;-65
2021/03/06 08:21:49;;;;;;;6.53;4.73;;;4.60;99.90;;;;;;5020058;28;20212;-65
2021/03/06 08:24:27;;;;;;;9.03;5.20;;;4.70;99.90;;;;;;5020628;28;20211;-67
2021/03/06 08:27:14;;;;;;;11.90;4.50;;;4.80;99.90;;;;;;5024580;28;20668;-67
2021/03/06 08:29:43;;;;;;;7.63;4.10;;;4.90;99.90;;;;;;5025380;28;20281;-65
2021/03/06 08:32:12;;;;;;;10.27;4.10;;;5.30;99.90;;;;;;5023287;28;20235;-66
2021/03/06 08:34:42;;;;;;;9.43;3.87;;;5.70;99.90;;;;;;5025586;28;20718;-70
2021/03/06 08:37:31;;;;;;;9.80;4.60;;;6.00;99.90;;;;;;5023120;28;20869;-71
2021/03/06 08:40:00;;;;;;;6.17;4.07;;;6.40;99.90;;;;;;5020978;28;20209;-64
2021/03/06 08:42:28;;;;;;;7.47;4.10;;;7.10;99.90;;;;;;5024187;28;20254;-67
2021/03/06 08:44:57;;;;;;;7.63;4.20;;;7.40;99.90;;;;;;5024586;28;20204;-66
2021/03/06 08:47:26;;;;;;;7.10;4.00;;;8.10;99.90;;;;;;5025265;28;20569;-67
2021/03/06 08:49:54;;;;;;;9.87;4.00;;;8.90;99.90;;;;;;5023662;28;20295;-69
2021/03/06 08:52:21;;;;;;;6.07;3.80;;;9.70;99.90;;;;;;5025197;28;20238;-64
2021/03/06 08:54:48;;;;;;;4.97;3.73;;;10.40;99.90;;;;;;5023601;28;20258;-65
2021/03/06 08:57:26;;;;;;;7.87;3.53;;;10.80;99.90;;;;;;5022811;28;20685;-65
2021/03/06 08:59:53;;;;;;;6.17;3.40;;;11.10;99.90;;;;;;5020573;28;20733;-64
2021/03/06 09:02:21;;;;;;;6.57;3.23;;;11.30;99.90;;;;;;5018948;28;20254;-66
2021/03/06 09:04:58;;;;;;;5.83;3.80;;;11.60;99.90;;;;;;5024089;28;20755;-62
2021/03/06 09:07:29;;;;;;;6.37;3.20;;;11.50;99.90;;;;;;5023961;28;20208;-68
2021/03/06 09:09:56;;;;;;;5.80;3.40;;;11.70;99.90;;;;;;5019883;28;20200;-70
2021/03/06 09:12:23;;;;;;;4.47;3.00;;;12.00;99.90;;;;;;5023408;28;20335;-66
2021/03/06 09:14:49;;;;;;;6.40;3.30;;;12.30;99.90;;;;;;5025557;28;20622;-66
2021/03/06 09:17:16;;;;;;;4.77;3.30;;;12.50;99.90;;;;;;5025508;28;20204;-69
2021/03/06 09:19:45;;;;;;;5.00;3.17;;;12.40;99.90;;;;;;5021582;28;20208;-69
2021/03/06 09:22:12;;;;;;;6.87;3.60;;;12.40;99.90;;;;;;5023746;28;20544;-66
2021/03/06 09:24:46;;;;;;;5.37;3.30;;;12.40;99.90;;;;;;5025118;28;20278;-66
2021/03/06 09:27:12;;;;;;;6.77;2.90;;;12.60;99.90;;;;;;5023261;28;20231;-69
2021/03/06 09:29:39;;;;;;;5.83;3.00;;;13.00;99.90;;;;;;5024194;28;20212;-68
2021/03/06 09:32:07;;;;;;;3.27;2.97;;;12.80;99.90;;;;;;5024367;28;20347;-68
2021/03/06 09:34:33;;;;;;;8.13;3.47;;;12.60;99.90;;;;;;5022374;28;20219;-70
2021/03/06 09:37:13;;;;;;;6.13;2.97;;;12.70;99.90;;;;;;5023192;28;20212;-68
2021/03/06 09:39:39;;;;;;;5.33;2.73;;;12.90;99.90;;;;;;5030858;28;20200;-68
2021/03/06 09:42:07;;;;;;;6.70;2.70;;;13.20;99.90;;;;;;5029224;28;20291;-71
2021/03/06 09:44:34;;;;;;;4.93;2.80;;;13.30;99.90;;;;;;5022499;28;20231;-70
2021/03/06 09:47:01;;;;;;;3.77;2.40;;;13.10;99.90;;;;;;5024555;28;20204;-70
2021/03/06 09:49:34;;;;;;;4.83;2.73;;;12.70;99.90;;;;;;5022449;28;20204;-67
2021/03/06 09:52:02;;;;;;;5.30;2.87;;;12.90;99.90;;;;;;5023266;28;20319;-69
2021/03/06 09:54:36;;;;;;;5.43;3.13;;;13.10;99.90;;;;;;5019942;28;20294;-69
2021/03/06 09:57:05;;;;;;;7.80;3.10;;;13.30;99.90;;;;;;5023439;28;20204;-67
2021/03/06 09:59:39;;;;;;;5.63;2.40;;;13.20;99.90;;;;;;5021896;28;20215;-73
2021/03/06 10:02:08;;;;;;;3.97;2.47;;;13.30;99.90;;;;;;5024034;28;20208;-71
2021/03/06 10:04:36;;;;;;;6.83;2.60;;;13.20;99.90;;;;;;5023044;28;20318;-66
2021/03/06 10:07:09;;;;;;;8.57;2.73;;;13.00;99.90;;;;;;5023451;28;20200;-71
2021/03/06 10:09:36;;;;;;;5.57;2.43;;;12.90;99.90;;;;;;5023290;28;20205;-68
2021/03/06 10:12:05;;;;;;;5.23;2.20;;;13.00;99.90;;;;;;5021897;28;20324;-63
2021/03/06 10:14:33;;;;;;;8.40;2.13;;;13.00;99.90;;;;;;5023483;28;20235;-68
2021/03/06 10:17:02;;;;;;;2.93;1.80;;;13.70;99.90;;;;;;5026367;28;20200;-67
2021/03/06 10:19:31;;;;;;;5.13;1.77;;;13.60;99.90;;;;;;5023973;28;20201;-66
2021/03/06 10:21:59;;;;;;;2.90;1.87;;;13.30;99.90;;;;;;5023164;28;20216;-71
2021/03/06 10:24:27;;;;;;;3.17;2.00;;;12.90;99.90;;;;;;5023008;28;20906;-70
2021/03/06 10:26:57;;;;;;;4.90;2.67;;;12.90;99.90;;;;;;5025273;28;20282;-72
2021/03/06 10:29:25;;;;;;;2.50;1.77;;;13.20;99.90;;;;;;5024150;28;20208;-70
2021/03/06 10:31:59;;;;;;;3.97;2.37;;;13.50;99.90;;;;;;5028667;28;20216;-72
2021/03/06 10:34:27;;;;;;;5.07;2.50;;;13.90;99.90;;;;;;5031737;28;20334;-68
2021/03/06 10:37:10;;;;;;;2.73;1.63;;;14.20;99.90;;;;;;5025644;28;20205;-71
2021/03/06 10:39:52;;;;;;;2.73;1.70;;;14.10;99.90;;;;;;5020094;28;20219;-65
2021/03/06 10:42:18;;;;;;;2.67;1.77;;;13.50;99.90;;;;;;5021474;28;20254;-63
2021/03/06 10:44:45;;;;;;;2.93;1.90;;;12.40;99.90;;;;;;5023608;28;20228;-69
2021/03/06 10:47:12;;;;;;;4.63;2.00;;;11.60;99.90;;;;;;5022772;28;20211;-70
2021/03/06 10:49:40;;;;;;;5.23;2.00;;;11.30;99.90;;;;;;5021267;28;20674;-71
2021/03/06 10:52:11;;;;;;;5.00;2.00;;;11.10;99.90;;;;;;5021405;28;20228;-71
2021/03/06 10:54:51;;;;;;;4.63;1.90;;;10.70;99.90;;;;;;5021590;28;20211;-65
2021/03/06 10:57:18;;;;;;;4.77;2.00;;;10.40;99.90;;;;;;5023099;28;20200;-69
2021/03/06 10:59:45;;;;;;;3.80;1.80;;;10.60;99.90;;;;;;5020547;28;20270;-68
2021/03/06 11:02:27;;;;;;;3.60;1.80;;;10.90;99.90;;;;;;5023381;28;21149;-70
2021/03/06 11:04:55;;;;;;;5.60;2.10;;;11.00;99.90;;;;;;5020056;28;20408;-65
2021/03/06 11:07:28;;;;;;;2.10;1.77;;;10.90;99.90;;;;;;5022262;28;20208;-67
2021/03/06 11:09:59;;;;;;;6.17;1.90;;;10.20;99.90;;;;;;5019482;28;20208;-64
2021/03/06 11:12:30;;;;;;;5.23;2.33;;;9.90;99.90;;;;;;5020235;28;20552;-71
2021/03/06 11:15:11;;;;;;;4.73;1.90;;;9.60;99.90;;;;;;5020484;28;20207;-66
2021/03/06 11:17:40;;;;;;;3.17;1.80;;;9.30;99.90;;;;;;5021803;28;20200;-70
2021/03/06 11:20:08;;;;;;;2.63;1.80;;;8.90;99.90;;;;;;5021076;28;20204;-68
2021/03/06 11:22:35;;;;;;;4.33;1.83;;;8.60;99.90;;;;;;5021251;28;20228;-69
2021/03/06 11:25:03;;;;;;;2.87;1.90;;;8.50;99.90;;;;;;5021712;28;20669;-71
2021/03/06 11:27:50;;;;;;;4.80;1.83;;;8.60;99.90;;;;;;5020612;28;20706;-69
2021/03/06 11:30:24;;;;;;;2.77;1.97;;;8.20;99.90;;;;;;5022482;28;20208;-73
2021/03/06 11:32:57;;;;;;;7.27;2.00;;;7.80;99.90;;;;;;5020517;28;20204;-67
2021/03/06 11:35:40;;;;;;;4.50;2.10;;;7.70;99.90;;;;;;5021810;28;20196;-63
2021/03/06 11:38:13;;;;;;;3.47;1.77;;;7.60;99.90;;;;;;5022161;28;20203;-68
2021/03/06 11:40:50;;;;;;;3.83;2.00;;;7.50;99.90;;;;;;5022809;28;20669;-72
2021/03/06 11:43:19;;;;;;;3.97;1.83;;;8.00;99.90;;;;;;5022095;28;20251;-67
2021/03/06 11:45:47;;;;;;;3.70;1.63;;;8.10;99.90;;;;;;5023715;28;20219;-67
2021/03/06 11:48:14;;;;;;;4.80;1.77;;;8.20;99.90;;;;;;5021840;28;21220;-68
2021/03/06 11:50:42;;;;;;;2.10;1.67;;;8.40;99.90;;;;;;5021792;28;20208;-70
2021/03/06 11:53:09;;;;;;;2.83;1.80;;;8.80;99.90;;;;;;5020294;28;20212;-71
2021/03/06 11:55:36;;;;;;;3.03;2.00;;;9.00;99.90;;;;;;5021575;28;20221;-66
2021/03/06 11:58:04;;;;;;;2.83;1.80;;;8.90;99.90;;;;;;5020671;28;20201;-67
2021/03/06 12:00:31;;;;;;;3.73;1.67;;;8.30;99.90;;;;;;5022976;28;20662;-65
2021/03/06 12:02:58;;;;;;;3.57;1.70;;;8.30;99.90;;;;;;5019382;28;20228;-66
2021/03/06 12:05:24;;;;;;;4.90;1.90;;;8.90;99.90;;;;;;5021779;28;20204;-65
2021/03/06 12:07:52;;;;;;;2.37;1.60;;;9.80;99.90;;;;;;5022158;28;20222;-69
2021/03/06 12:10:20;;;;;;;4.80;1.90;;;10.70;99.90;;;;;;5020965;28;20231;-66
2021/03/06 12:12:49;;;;;;;3.47;2.13;;;11.80;99.90;;;;;;5020605;28;20208;-69
2021/03/06 12:15:18;;;;;;;3.80;1.63;;;12.50;99.90;;;;;;5021836;28;20269;-65
2021/03/06 12:17:46;;;;;;;2.63;1.40;;;12.90;99.90;;;;;;5020543;28;20208;-64
2021/03/06 12:20:13;;;;;;;4.00;1.53;;;13.50;99.90;;;;;;5021115;28;20579;-69
2021/03/06 12:22:40;;;;;;;4.77;1.67;;;13.20;99.90;;;;;;5021216;28;20293;-72
2021/03/06 12:25:08;;;;;;;3.10;1.60;;;11.90;99.90;;;;;;5021364;28;20236;-64
2021/03/06 12:27:35;;;;;;;2.77;1.60;;;11.00;99.90;;;;;;5020111;28;20235;-69
2021/03/06 12:30:05;;;;;;;3.07;1.40;;;9.90;99.90;;;;;;5021277;28;20205;-66
2021/03/06 12:32:33;;;;;;;5.10;1.67;;;9.70;99.90;;;;;;5021505;28;20208;-71
2021/03/06 12:34:59;;;;;;;2.13;1.50;;;10.00;99.90;;;;;;5019874;28;20204;-68
2021/03/06 12:37:26;;;;;;;3.57;1.57;;;10.50;99.90;;;;;;5021447;28;20208;-72
2021/03/06 12:39:53;;;;;;;3.60;1.47;;;11.00;99.90;;;;;;5026928;28;20204;-74
2021/03/06 12:42:19;;;;;;;4.03;2.17;;;10.30;99.90;;;;;;5028827;28;20259;-72
2021/03/06 12:44:45;;;;;;;2.73;1.40;;;9.60;99.90;;;;;;5024808;28;20227;-73
2021/03/06 12:47:12;;;;;;;3.50;1.67;;;9.00;99.90;;;;;;5021230;28;20259;-70
2021/03/06 12:49:39;;;;;;;4.63;1.80;;;8.60;99.90;;;;;;5022271;28;20292;-73